createdAt,value
2018-09-30T00:02:48.963Z,100384.09
2018-09-30T00:05:53.486Z,100381.38
2018-09-30T00:08:58.060Z,100381.20
2018-09-30T00:12:03.652Z,100375.09
2018-09-30T00:15:08.185Z,100373.09
2018-09-30T00:18:12.614Z,100378.00
2018-09-30T00:21:17.084Z,100370.91
2018-09-30T00:24:26.768Z,100372.92
2018-09-30T00:27:31.268Z,100369.17
2018-09-30T00:30:35.807Z,100362.30
2018-09-30T00:33:45.497Z,100361.77
2018-09-30T00:36:50.041Z,100352.80
2018-09-30T00:39:54.552Z,100359.44
2018-09-30T00:42:59.035Z,100358.63
2018-09-30T00:46:03.510Z,100362.27
2018-09-30T00:49:08.082Z,100365.19
2018-09-30T00:52:12.546Z,100362.86
2018-09-30T00:55:17.009Z,100363.30
2018-09-30T00:58:21.483Z,100364.36
2018-09-30T01:01:26.044Z,100359.80
2018-09-30T01:04:30.493Z,100357.89
2018-09-30T01:07:35.456Z,100356.20
2018-09-30T01:10:40.182Z,100360.45
2018-09-30T01:13:44.685Z,100353.03
2018-09-30T01:16:49.170Z,100345.50
2018-09-30T01:19:53.682Z,100351.43
2018-09-30T01:22:58.211Z,100357.11
2018-09-30T01:26:03.082Z,100345.02
2018-09-30T01:29:07.643Z,100342.39
2018-09-30T01:32:12.151Z,100341.27
2018-09-30T01:35:16.597Z,100343.58
2018-09-30T01:38:21.018Z,100335.64
2018-09-30T01:41:25.538Z,100335.72
2018-09-30T01:44:29.981Z,100339.86
2018-09-30T01:47:34.386Z,100337.45
2018-09-30T01:50:38.869Z,100338.91
2018-09-30T01:53:43.710Z,100338.33
2018-09-30T01:56:48.190Z,100335.06
2018-09-30T01:59:52.618Z,100325.33
2018-09-30T02:02:57.199Z,100331.11
2018-09-30T02:06:01.661Z,100330.65
2018-09-30T02:09:06.250Z,100322.53
2018-09-30T02:12:10.832Z,100321.73
2018-09-30T02:15:15.347Z,100322.77
2018-09-30T02:18:19.868Z,100314.45
2018-09-30T02:21:24.351Z,100311.90
2018-09-30T02:24:28.824Z,100321.51
2018-09-30T02:27:33.341Z,100320.84
2018-09-30T02:30:37.745Z,100318.64
2018-09-30T02:33:42.550Z,100316.64
2018-09-30T02:36:47.054Z,100309.53
2018-09-30T02:39:51.471Z,100305.70
2018-09-30T02:42:56.054Z,100294.55
2018-09-30T02:46:00.504Z,100288.83
2018-09-30T02:49:04.995Z,100286.12
2018-09-30T02:52:09.507Z,100284.28
2018-09-30T02:55:14.054Z,100293.17
2018-09-30T02:58:18.592Z,100288.57
2018-09-30T03:01:23.102Z,100281.80
2018-09-30T03:04:27.610Z,100275.80
2018-09-30T03:07:37.214Z,100280.23
2018-09-30T03:10:41.614Z,100270.48
2018-09-30T03:13:46.065Z,100273.31
2018-09-30T03:16:50.583Z,100265.42
2018-09-30T03:19:54.976Z,100262.19
2018-09-30T03:22:59.461Z,100254.31
2018-09-30T03:26:03.951Z,100249.16
2018-09-30T03:29:08.494Z,100247.45
2018-09-30T03:32:13.013Z,100243.72
2018-09-30T03:35:17.538Z,100242.73
2018-09-30T03:38:22.038Z,100239.38
2018-09-30T03:41:26.460Z,100246.30
2018-09-30T03:44:30.926Z,100237.46
2018-09-30T03:47:35.412Z,100229.34
2018-09-30T03:50:39.849Z,100232.60
2018-09-30T03:53:44.291Z,100229.19
2018-09-30T03:56:48.788Z,100224.75
2018-09-30T03:59:53.198Z,100219.59
2018-09-30T04:02:57.661Z,100217.63
2018-09-30T04:06:02.168Z,100216.98
2018-09-30T04:09:09.229Z,100216.44
2018-09-30T04:12:13.685Z,100220.86
2018-09-30T04:15:18.119Z,100217.59
2018-09-30T04:18:22.584Z,100212.38
2018-09-30T04:21:27.077Z,100212.45
2018-09-30T04:24:31.573Z,100200.26
2018-09-30T04:27:36.009Z,100205.52
2018-09-30T04:30:40.478Z,100211.70
2018-09-30T04:33:44.975Z,100206.30
2018-09-30T04:36:49.435Z,100198.20
2018-09-30T04:39:53.871Z,100202.22
2018-09-30T04:42:58.334Z,100207.75
2018-09-30T04:46:02.844Z,100205.58
2018-09-30T04:49:07.411Z,100202.00
2018-09-30T04:52:11.923Z,100210.05
2018-09-30T04:55:16.457Z,100200.61
2018-09-30T04:58:20.913Z,100201.92
2018-09-30T05:01:25.458Z,100200.78
2018-09-30T05:04:29.982Z,100197.09
2018-09-30T05:07:34.517Z,100202.28
2018-09-30T05:10:39.023Z,100202.03
2018-09-30T05:13:45.151Z,100194.81
2018-09-30T05:16:49.678Z,100191.67
2018-09-30T05:19:54.527Z,100193.65
2018-09-30T05:22:59.017Z,100189.02
2018-09-30T05:26:03.624Z,100191.41
2018-09-30T05:29:08.207Z,100190.16
2018-09-30T05:32:12.823Z,100187.20
2018-09-30T05:35:17.333Z,100192.61
2018-09-30T05:38:21.861Z,100187.09
2018-09-30T05:41:26.365Z,100184.34
2018-09-30T05:44:30.909Z,100181.25
2018-09-30T05:47:35.647Z,100175.27
2018-09-30T05:50:40.137Z,100178.33
2018-09-30T05:53:44.739Z,100168.20
2018-09-30T05:56:49.204Z,100169.07
2018-09-30T05:59:54.096Z,100165.17
2018-09-30T06:02:58.691Z,100164.53
2018-09-30T06:06:03.141Z,100155.95
2018-09-30T06:09:12.545Z,100151.83
2018-09-30T06:12:16.871Z,100153.52
2018-09-30T06:15:21.449Z,100158.52
2018-09-30T06:18:25.924Z,100161.32
2018-09-30T06:21:30.521Z,100169.69
2018-09-30T06:24:35.055Z,100170.25
2018-09-30T06:27:39.515Z,100166.66
2018-09-30T06:30:44.125Z,100161.64
2018-09-30T06:33:48.583Z,100160.77
2018-09-30T06:36:53.127Z,100158.91
2018-09-30T06:39:57.678Z,100160.05
2018-09-30T06:43:02.176Z,100163.17
2018-09-30T06:46:06.659Z,100151.34
2018-09-30T06:49:11.255Z,100155.25
2018-09-30T06:52:15.715Z,100162.46
2018-09-30T06:55:20.228Z,100157.61
2018-09-30T06:58:24.683Z,100148.34
2018-09-30T07:01:29.287Z,100149.58
2018-09-30T07:04:33.874Z,100149.37
2018-09-30T07:07:38.566Z,100140.21
2018-09-30T07:10:43.182Z,100139.75
2018-09-30T07:13:47.637Z,100140.11
2018-09-30T07:16:52.169Z,100134.28
2018-09-30T07:19:56.768Z,100140.12
2018-09-30T07:23:01.277Z,100135.39
2018-09-30T07:26:05.776Z,100140.41
2018-09-30T07:29:10.308Z,100134.41
2018-09-30T07:32:14.836Z,100136.14
2018-09-30T07:35:19.456Z,100131.41
2018-09-30T07:38:23.887Z,100125.23
2018-09-30T07:41:28.414Z,100128.02
2018-09-30T07:44:32.874Z,100122.75
2018-09-30T07:47:37.339Z,100127.66
2018-09-30T07:50:41.873Z,100118.71
2018-09-30T07:53:46.352Z,100117.80
2018-09-30T07:56:50.857Z,100106.80
2018-09-30T07:59:55.362Z,100099.58
2018-09-30T08:02:59.952Z,100101.18
2018-09-30T08:06:04.436Z,100095.00
2018-09-30T08:09:09.939Z,100098.78
2018-09-30T08:12:14.497Z,100077.17
2018-09-30T08:15:18.953Z,100080.66
2018-09-30T08:18:23.499Z,100062.75
2018-09-30T08:21:28.142Z,100052.38
2018-09-30T08:24:32.683Z,100054.13
2018-09-30T08:27:37.108Z,100055.63
2018-09-30T08:30:41.791Z,100040.98
2018-09-30T08:33:46.413Z,100035.95
2018-09-30T08:36:50.983Z,100034.11
2018-09-30T08:39:55.676Z,100025.84
2018-09-30T08:43:00.134Z,100024.08
2018-09-30T08:46:04.740Z,100029.09
2018-09-30T08:49:09.333Z,100033.72
2018-09-30T08:52:13.791Z,100032.91
2018-09-30T08:55:18.357Z,100032.41
2018-09-30T08:58:23.561Z,100032.84
2018-09-30T09:01:28.072Z,100024.33
2018-09-30T09:04:32.621Z,100027.97
2018-09-30T09:07:37.191Z,100020.86
2018-09-30T09:10:41.732Z,100011.56
2018-09-30T09:13:46.268Z,100007.47
2018-09-30T09:16:50.898Z,100001.83
2018-09-30T09:19:55.748Z,99997.28
2018-09-30T09:23:00.222Z,99995.78
2018-09-30T09:26:04.794Z,99995.10
2018-09-30T09:29:09.300Z,99988.52
2018-09-30T09:32:13.889Z,99982.92
2018-09-30T09:35:18.467Z,99981.25
2018-09-30T09:38:23.024Z,99978.84
2018-09-30T09:41:27.498Z,99976.13
2018-09-30T09:44:32.123Z,99966.41
2018-09-30T09:47:36.661Z,99965.91
2018-09-30T09:50:41.210Z,99963.00
2018-09-30T09:53:45.665Z,99955.45
2018-09-30T09:56:50.150Z,99945.02
2018-09-30T09:59:54.652Z,99935.20
2018-09-30T10:02:59.171Z,99937.01
2018-09-30T10:06:03.751Z,99923.06
2018-09-30T10:09:08.308Z,99926.09
2018-09-30T10:12:12.776Z,99917.39
2018-09-30T10:15:17.217Z,99919.26
2018-09-30T10:18:21.739Z,99921.77
2018-09-30T10:21:26.304Z,99913.75
2018-09-30T10:24:30.832Z,99905.99
2018-09-30T10:27:35.308Z,99898.30
2018-09-30T10:30:39.784Z,99881.86
2018-09-30T10:33:44.210Z,99880.59
2018-09-30T10:36:48.670Z,99870.59
2018-09-30T10:39:53.117Z,99873.61
2018-09-30T10:42:57.630Z,99871.78
2018-09-30T10:46:02.541Z,99856.77
2018-09-30T10:49:07.460Z,99852.91
2018-09-30T10:52:11.956Z,99847.34
2018-09-30T10:55:16.576Z,99843.83
2018-09-30T10:58:20.991Z,99839.55
2018-09-30T11:01:25.509Z,99837.95
2018-09-30T11:04:30.093Z,99829.62
2018-09-30T11:07:34.654Z,99830.54
2018-09-30T11:10:39.345Z,99824.17
2018-09-30T11:13:43.851Z,99810.97
2018-09-30T11:16:48.450Z,99800.52
2018-09-30T11:19:53.117Z,99789.66
2018-09-30T11:22:57.539Z,99787.76
2018-09-30T11:26:02.174Z,99784.66
2018-09-30T11:29:07.117Z,99785.44
2018-09-30T11:32:11.588Z,99768.50
2018-09-30T11:35:16.095Z,99772.37
2018-09-30T11:38:20.964Z,99768.80
2018-09-30T11:41:25.444Z,99756.46
2018-09-30T11:44:29.914Z,99758.03
2018-09-30T11:47:34.422Z,99752.87
2018-09-30T11:50:39.005Z,99750.11
2018-09-30T11:53:43.550Z,99740.01
2018-09-30T11:56:48.052Z,99741.47
2018-09-30T11:59:52.529Z,99741.37
2018-09-30T12:02:57.040Z,99730.46
2018-09-30T12:06:01.722Z,99720.27
2018-09-30T12:09:09.169Z,99711.95
2018-09-30T12:12:13.715Z,99708.58
2018-09-30T12:15:18.299Z,99707.71
2018-09-30T12:18:22.857Z,99707.38
2018-09-30T12:21:27.641Z,99704.48
2018-09-30T12:24:32.366Z,99697.60
2018-09-30T12:27:36.973Z,99695.73
2018-09-30T12:30:41.668Z,99686.06
2018-09-30T12:33:46.159Z,99678.36
2018-09-30T12:36:50.818Z,99666.22
2018-09-30T12:39:55.622Z,99663.10
2018-09-30T12:43:00.251Z,99655.56
2018-09-30T12:46:04.900Z,99649.59
2018-09-30T12:49:09.593Z,99642.30
2018-09-30T12:52:14.121Z,99642.84
2018-09-30T12:55:18.653Z,99641.45
2018-09-30T12:58:23.198Z,99633.73
2018-09-30T13:01:27.955Z,99627.01
2018-09-30T13:04:32.518Z,99633.25
2018-09-30T13:07:37.123Z,99634.13
2018-09-30T13:10:41.618Z,99629.44
2018-09-30T13:13:46.098Z,99629.37
2018-09-30T13:16:50.684Z,99613.88
2018-09-30T13:19:55.209Z,99608.44
2018-09-30T13:22:59.832Z,99605.69
2018-09-30T13:26:04.366Z,99602.42
2018-09-30T13:29:09.147Z,99601.63
2018-09-30T13:32:13.768Z,99600.52
2018-09-30T13:35:18.555Z,99601.07
2018-09-30T13:38:23.084Z,99595.05
2018-09-30T13:41:27.571Z,99583.33
2018-09-30T13:44:32.527Z,99583.34
2018-09-30T13:47:37.173Z,99577.86
2018-09-30T13:50:41.778Z,99570.23
2018-09-30T13:53:46.455Z,99571.30
2018-09-30T13:56:51.065Z,99572.95
2018-09-30T13:59:55.646Z,99559.56
2018-09-30T14:03:00.160Z,99564.47
2018-09-30T14:06:04.796Z,99556.56
2018-09-30T14:09:10.514Z,99553.28
2018-09-30T14:12:15.216Z,99549.74
2018-09-30T14:15:19.673Z,99545.09
2018-09-30T14:18:24.298Z,99541.80
2018-09-30T14:21:28.868Z,99541.55
2018-09-30T14:24:34.110Z,99535.54
2018-09-30T14:27:38.568Z,99536.05
2018-09-30T14:30:43.022Z,99534.47
2018-09-30T14:33:47.624Z,99527.90
2018-09-30T14:36:52.146Z,99525.43
2018-09-30T14:39:56.723Z,99523.75
2018-09-30T14:43:01.314Z,99525.68
2018-09-30T14:46:05.917Z,99522.18
2018-09-30T14:49:10.416Z,99516.43
2018-09-30T14:52:15.000Z,99513.44
2018-09-30T14:55:19.594Z,99514.00
2018-09-30T14:58:24.136Z,99503.07
2018-09-30T15:01:28.673Z,99500.85
2018-09-30T15:04:33.551Z,99503.01
2018-09-30T15:07:38.090Z,99496.48
2018-09-30T15:10:42.683Z,99490.73
2018-09-30T15:13:47.954Z,99489.30
2018-09-30T15:16:52.513Z,99486.02
2018-09-30T15:19:57.039Z,99480.27
2018-09-30T15:23:01.782Z,99494.15
2018-09-30T15:26:06.435Z,99483.77
2018-09-30T15:29:11.032Z,99485.05
2018-09-30T15:32:15.503Z,99472.80
2018-09-30T15:35:20.029Z,99470.02
2018-09-30T15:38:24.556Z,99480.02
2018-09-30T15:41:29.071Z,99469.73
2018-09-30T15:44:33.751Z,99468.86
2018-09-30T15:47:38.318Z,99472.44
2018-09-30T15:50:42.858Z,99470.42
2018-09-30T15:53:47.556Z,99472.20
2018-09-30T15:56:52.284Z,99470.78
2018-09-30T15:59:56.774Z,99460.05
2018-09-30T16:03:01.386Z,99466.56
2018-09-30T16:06:05.861Z,99463.52
2018-09-30T16:09:10.946Z,99461.83
2018-09-30T16:12:15.431Z,99452.91
2018-09-30T16:15:19.965Z,99454.78
2018-09-30T16:18:24.477Z,99450.03
2018-09-30T16:21:29.123Z,99455.52
2018-09-30T16:24:33.619Z,99453.37
2018-09-30T16:27:38.106Z,99450.11
2018-09-30T16:30:42.743Z,99451.81
2018-09-30T16:33:47.201Z,99452.49
2018-09-30T16:36:51.742Z,99449.38
2018-09-30T16:39:56.335Z,99450.84
2018-09-30T16:43:00.859Z,99443.52
2018-09-30T16:46:05.504Z,99453.97
2018-09-30T16:49:10.167Z,99457.35
2018-09-30T16:52:14.684Z,99462.17
2018-09-30T16:55:19.301Z,99457.21
2018-09-30T16:58:23.758Z,99463.09
2018-09-30T17:01:28.231Z,99472.90
2018-09-30T17:04:32.763Z,99467.53
2018-09-30T17:07:37.290Z,99471.27
2018-09-30T17:10:41.719Z,99472.91
2018-09-30T17:13:46.248Z,99470.67
2018-09-30T17:16:50.765Z,99472.19
2018-09-30T17:19:55.301Z,99472.36
2018-09-30T17:22:59.755Z,99471.73
2018-09-30T17:26:04.389Z,99478.64
2018-09-30T17:29:09.254Z,99483.97
2018-09-30T17:32:13.780Z,99487.70
2018-09-30T17:35:18.468Z,99492.57
2018-09-30T17:38:23.164Z,99487.83
2018-09-30T17:41:27.778Z,99493.63
2018-09-30T17:44:32.444Z,99497.22
2018-09-30T17:47:37.047Z,99493.78
2018-09-30T17:50:41.602Z,99490.48
2018-09-30T17:53:46.345Z,99489.28
2018-09-30T17:56:50.914Z,99493.30
2018-09-30T17:59:55.476Z,99490.78
2018-09-30T18:03:00.002Z,99494.27
2018-09-30T18:06:04.689Z,99501.47
2018-09-30T18:09:11.452Z,99494.73
2018-09-30T18:12:16.098Z,99497.17
2018-09-30T18:15:20.683Z,99493.09
2018-09-30T18:18:25.373Z,99494.83
2018-09-30T18:21:32.332Z,99490.62
2018-09-30T18:24:37.102Z,99490.69
2018-09-30T18:27:43.547Z,99487.44
2018-09-30T18:30:48.985Z,99486.41
2018-09-30T18:33:54.597Z,99487.65
2018-09-30T18:36:59.272Z,99488.61
2018-09-30T18:40:04.279Z,99491.66
2018-09-30T18:43:09.662Z,99494.84
2018-09-30T18:46:14.337Z,99483.33
2018-09-30T18:49:19.107Z,99480.95
2018-09-30T18:52:23.927Z,99489.22
2018-09-30T18:55:28.615Z,99487.07
2018-09-30T18:58:33.114Z,99486.16
2018-09-30T19:01:37.880Z,99480.30
2018-09-30T19:04:43.067Z,99478.99
2018-09-30T19:07:48.100Z,99478.17
2018-09-30T19:10:53.180Z,99477.06
2018-09-30T19:13:57.718Z,99470.38
2018-09-30T19:17:02.613Z,99464.80
2018-09-30T19:20:08.164Z,99469.84
2018-09-30T19:23:12.903Z,99465.33
2018-09-30T19:26:18.202Z,99458.88
2018-09-30T19:29:22.823Z,99475.44
2018-09-30T19:32:27.393Z,99473.80
2018-09-30T19:35:31.980Z,99467.00
2018-09-30T19:38:36.509Z,99465.34
2018-09-30T19:41:41.215Z,99463.89
2018-09-30T19:44:45.863Z,99462.25
2018-09-30T19:47:50.799Z,99459.47
2018-09-30T19:50:55.396Z,99458.94
2018-09-30T19:54:00.137Z,99459.37
2018-09-30T19:57:04.782Z,99464.53
2018-09-30T20:00:09.400Z,99459.98
2018-09-30T20:03:14.030Z,99461.61
2018-09-30T20:06:18.875Z,99456.25
2018-09-30T20:09:23.488Z,99458.11
2018-09-30T20:12:28.072Z,99459.53
2018-09-30T20:15:32.675Z,99460.05
2018-09-30T20:18:37.237Z,99464.56
2018-09-30T20:21:41.797Z,99459.31
2018-09-30T20:24:46.291Z,99467.13
2018-09-30T20:27:50.894Z,99467.84
2018-09-30T20:30:56.025Z,99469.19
2018-09-30T20:34:00.825Z,99466.27
2018-09-30T20:37:05.412Z,99468.31
2018-09-30T20:40:10.278Z,99459.75
2018-09-30T20:43:15.003Z,99462.91
2018-09-30T20:46:20.072Z,99462.91
2018-09-30T20:49:24.686Z,99467.03
2018-09-30T20:52:29.341Z,99458.78
2018-09-30T20:55:35.511Z,99461.85
2018-09-30T20:58:40.660Z,99448.05
2018-09-30T21:01:45.330Z,99450.97
2018-09-30T21:04:50.022Z,99459.01
2018-09-30T21:07:55.089Z,99450.80
2018-09-30T21:10:59.777Z,99448.46
2018-09-30T21:14:05.094Z,99450.53
2018-09-30T21:17:09.656Z,99444.55
2018-09-30T21:20:14.251Z,99441.52
2018-09-30T21:23:18.924Z,99449.41
2018-09-30T21:26:23.378Z,99448.41
2018-09-30T21:29:27.847Z,99445.73
2018-09-30T21:32:32.371Z,99448.97
2018-09-30T21:35:38.135Z,99446.53
2018-09-30T21:38:42.646Z,99452.25
2018-09-30T21:41:47.377Z,99443.00
2018-09-30T21:44:51.992Z,99451.81
2018-09-30T21:47:56.548Z,99449.96
2018-09-30T21:51:01.058Z,99448.84
2018-09-30T21:54:05.637Z,99452.20
2018-09-30T21:57:10.207Z,99451.70
2018-09-30T22:00:18.740Z,99447.74
2018-09-30T22:03:23.449Z,99451.78
2018-09-30T22:06:28.172Z,99445.21
2018-09-30T22:09:33.670Z,99441.90
2018-09-30T22:12:38.441Z,99439.11
2018-09-30T22:15:43.438Z,99442.61
2018-09-30T22:18:48.031Z,99433.14
2018-09-30T22:21:52.735Z,99433.53
2018-09-30T22:24:57.289Z,99435.38
2018-09-30T22:28:02.161Z,99427.88
2018-09-30T22:31:06.740Z,99436.84
2018-09-30T22:34:11.273Z,99431.23
2018-09-30T22:37:15.830Z,99426.81
2018-09-30T22:40:20.380Z,99419.00
2018-09-30T22:43:24.918Z,99423.22
2018-09-30T22:46:29.388Z,99423.84
2018-09-30T22:49:33.921Z,99426.29
2018-09-30T22:52:38.486Z,99427.63
2018-09-30T22:55:42.958Z,99418.77
2018-09-30T22:58:47.490Z,99415.93
2018-09-30T23:01:52.214Z,99412.58
2018-09-30T23:04:56.695Z,99414.72
2018-09-30T23:08:01.407Z,99419.34
2018-09-30T23:11:05.955Z,99428.25
2018-09-30T23:14:10.707Z,99418.91
2018-09-30T23:17:15.341Z,99419.84
2018-09-30T23:20:20.028Z,99414.66
2018-09-30T23:23:24.595Z,99419.05
2018-09-30T23:26:29.072Z,99418.75
2018-09-30T23:29:33.604Z,99423.18
2018-09-30T23:32:38.765Z,99421.14
2018-09-30T23:35:43.637Z,99417.62
2018-09-30T23:38:48.385Z,99415.70
2018-09-30T23:41:53.100Z,99416.61
2018-09-30T23:44:57.778Z,99420.34
2018-09-30T23:48:02.522Z,99420.31
2018-09-30T23:51:06.949Z,99423.84
2018-09-30T23:54:11.521Z,99419.45
2018-09-30T23:57:16.091Z,99421.16
